createdAt,value
2018-12-29T00:00:58.698Z,99.90
2018-12-29T00:03:27.127Z,99.90
2018-12-29T00:05:55.658Z,99.90
2018-12-29T00:08:24.171Z,99.90
2018-12-29T00:10:52.546Z,99.90
2018-12-29T00:13:21.201Z,99.90
2018-12-29T00:15:49.627Z,99.90
2018-12-29T00:18:17.879Z,99.90
2018-12-29T00:20:46.059Z,99.90
2018-12-29T00:23:14.509Z,99.90
2018-12-29T00:25:42.914Z,99.90
2018-12-29T00:28:11.196Z,99.90
2018-12-29T00:30:39.667Z,99.90
2018-12-29T00:33:08.226Z,99.90
2018-12-29T00:35:36.741Z,99.90
2018-12-29T00:38:05.187Z,99.90
2018-12-29T00:40:33.667Z,99.90
2018-12-29T00:43:02.173Z,99.90
2018-12-29T00:45:30.630Z,99.90
2018-12-29T00:47:59.108Z,99.90
2018-12-29T00:50:27.793Z,99.90
2018-12-29T00:52:56.263Z,99.90
2018-12-29T00:55:24.691Z,99.90
2018-12-29T00:57:53.238Z,99.90
2018-12-29T01:00:21.748Z,99.90
2018-12-29T01:02:50.400Z,99.90
2018-12-29T01:05:18.707Z,99.90
2018-12-29T01:07:47.156Z,99.90
2018-12-29T01:10:15.571Z,99.90
2018-12-29T01:12:44.119Z,99.90
2018-12-29T01:15:12.699Z,99.90
2018-12-29T01:17:41.230Z,99.90
2018-12-29T01:20:09.764Z,99.90
2018-12-29T01:22:38.141Z,99.90
2018-12-29T01:25:06.662Z,99.90
2018-12-29T01:27:34.919Z,99.90
2018-12-29T01:30:03.584Z,99.90
2018-12-29T01:32:31.962Z,99.90
2018-12-29T01:35:19.387Z,99.90
2018-12-29T01:37:47.708Z,99.90
2018-12-29T01:40:15.983Z,99.90
2018-12-29T01:42:44.520Z,99.90
2018-12-29T01:45:17.332Z,99.90
2018-12-29T01:47:43.528Z,99.90
2018-12-29T01:50:12.052Z,99.90
2018-12-29T01:52:40.662Z,99.90
2018-12-29T01:55:09.111Z,99.90
2018-12-29T01:57:37.553Z,99.90
2018-12-29T02:00:05.867Z,99.90
2018-12-29T02:02:34.411Z,99.90
2018-12-29T02:05:03.301Z,99.90
2018-12-29T02:07:31.416Z,99.90
2018-12-29T02:10:00.224Z,99.90
2018-12-29T02:12:28.662Z,99.90
2018-12-29T02:14:56.948Z,99.90
2018-12-29T02:17:25.293Z,99.90
2018-12-29T02:19:53.716Z,99.90
2018-12-29T02:22:22.072Z,99.90
2018-12-29T02:24:50.632Z,99.90
2018-12-29T02:27:19.046Z,99.90
2018-12-29T02:29:47.498Z,99.90
2018-12-29T02:32:16.012Z,99.90
2018-12-29T02:34:44.357Z,99.90
2018-12-29T02:37:12.771Z,99.90
2018-12-29T02:39:41.318Z,99.90
2018-12-29T02:42:09.690Z,99.90
2018-12-29T02:44:38.202Z,99.90
2018-12-29T02:47:06.575Z,99.90
2018-12-29T02:49:34.947Z,99.90
2018-12-29T02:52:03.249Z,99.90
2018-12-29T02:54:31.400Z,99.90
2018-12-29T02:56:59.761Z,99.90
2018-12-29T02:59:28.134Z,99.90
2018-12-29T03:01:56.540Z,99.90
2018-12-29T03:04:24.895Z,99.90
2018-12-29T03:06:53.285Z,99.90
2018-12-29T03:09:21.743Z,99.90
2018-12-29T03:11:50.259Z,99.90
2018-12-29T03:14:18.636Z,99.90
2018-12-29T03:16:47.022Z,99.90
2018-12-29T03:19:15.563Z,99.90
2018-12-29T03:21:43.973Z,99.90
2018-12-29T03:24:12.269Z,99.90
2018-12-29T03:26:40.596Z,99.90
2018-12-29T03:29:09.176Z,99.90
2018-12-29T03:31:37.760Z,99.90
2018-12-29T03:34:06.239Z,99.90
2018-12-29T03:36:34.924Z,99.90
2018-12-29T03:39:04.745Z,99.90
2018-12-29T03:41:33.129Z,99.90
2018-12-29T03:44:01.536Z,99.90
2018-12-29T03:46:30.077Z,99.90
2018-12-29T03:48:58.456Z,99.90
2018-12-29T03:51:26.976Z,99.90
2018-12-29T03:53:55.555Z,99.90
2018-12-29T03:56:23.995Z,99.90
2018-12-29T03:58:52.306Z,99.90
2018-12-29T04:01:20.581Z,99.90
2018-12-29T04:03:49.035Z,99.90
2018-12-29T04:06:17.187Z,99.90
2018-12-29T04:09:23.057Z,99.90
2018-12-29T04:11:51.641Z,99.90
2018-12-29T04:14:20.052Z,99.90
2018-12-29T04:16:48.458Z,99.90
2018-12-29T04:19:16.695Z,99.90
2018-12-29T04:21:45.155Z,99.90
2018-12-29T04:24:13.571Z,99.90
2018-12-29T04:26:41.651Z,99.90
2018-12-29T04:29:10.020Z,99.90
2018-12-29T04:31:38.360Z,99.90
2018-12-29T04:34:06.736Z,99.90
2018-12-29T04:36:35.048Z,99.90
2018-12-29T04:39:04.515Z,99.90
2018-12-29T04:41:32.819Z,99.90
2018-12-29T04:44:01.270Z,99.90
2018-12-29T04:46:29.688Z,99.90
2018-12-29T04:48:58.060Z,99.90
2018-12-29T04:51:26.544Z,99.90
2018-12-29T04:53:55.443Z,99.90
2018-12-29T04:56:23.979Z,99.90
2018-12-29T04:58:52.461Z,99.90
2018-12-29T05:01:20.941Z,99.90
2018-12-29T05:03:49.316Z,99.90
2018-12-29T05:06:17.720Z,99.90
2018-12-29T05:08:46.382Z,99.90
2018-12-29T05:11:14.826Z,99.90
2018-12-29T05:13:43.174Z,99.90
2018-12-29T05:16:12.953Z,99.90
2018-12-29T05:18:41.795Z,99.90
2018-12-29T05:21:10.157Z,99.90
2018-12-29T05:23:38.699Z,99.90
2018-12-29T05:26:07.211Z,99.90
2018-12-29T05:28:35.597Z,99.90
2018-12-29T05:31:04.046Z,99.90
2018-12-29T05:33:32.517Z,99.90
2018-12-29T05:36:00.928Z,99.90
2018-12-29T05:38:29.637Z,99.90
2018-12-29T05:40:58.204Z,99.90
2018-12-29T05:43:26.584Z,99.90
2018-12-29T05:45:55.012Z,99.90
2018-12-29T05:48:23.432Z,99.90
2018-12-29T05:50:51.729Z,99.90
2018-12-29T05:53:20.023Z,99.90
2018-12-29T05:55:48.533Z,99.90
2018-12-29T05:58:16.951Z,99.90
2018-12-29T06:00:45.411Z,99.90
2018-12-29T06:03:13.973Z,99.90
2018-12-29T06:05:42.016Z,99.90
2018-12-29T06:08:10.456Z,99.90
2018-12-29T06:10:38.830Z,99.90
2018-12-29T06:13:07.125Z,99.90
2018-12-29T06:15:35.761Z,99.90
2018-12-29T06:18:04.171Z,99.90
2018-12-29T06:20:32.414Z,99.90
2018-12-29T06:23:00.815Z,99.90
2018-12-29T06:25:29.276Z,99.90
2018-12-29T06:27:58.000Z,99.90
2018-12-29T06:30:26.438Z,99.90
2018-12-29T06:32:55.022Z,99.90
2018-12-29T06:35:23.502Z,99.90
2018-12-29T06:37:52.095Z,99.90
2018-12-29T06:40:20.406Z,99.90
2018-12-29T06:42:48.772Z,99.90
2018-12-29T06:45:17.323Z,99.90
2018-12-29T06:47:45.841Z,99.90
2018-12-29T06:50:14.108Z,99.90
2018-12-29T06:52:42.454Z,99.90
2018-12-29T06:55:18.298Z,99.90
2018-12-29T06:57:47.254Z,99.90
2018-12-29T07:00:15.817Z,99.90
2018-12-29T07:02:44.176Z,99.90
2018-12-29T07:05:12.639Z,99.90
2018-12-29T07:07:41.120Z,99.90
2018-12-29T07:10:09.432Z,99.90
2018-12-29T07:12:38.091Z,99.90
2018-12-29T07:15:06.362Z,99.90
2018-12-29T07:17:34.836Z,99.90
2018-12-29T07:20:03.540Z,99.90
2018-12-29T07:22:31.947Z,99.90
2018-12-29T07:25:00.482Z,99.90
2018-12-29T07:27:28.996Z,99.90
2018-12-29T07:29:57.272Z,99.90
2018-12-29T07:32:25.757Z,99.90
2018-12-29T07:34:53.984Z,99.90
2018-12-29T07:37:22.398Z,99.90
2018-12-29T07:39:50.852Z,99.90
2018-12-29T07:42:19.569Z,99.90
2018-12-29T07:44:48.055Z,99.90
2018-12-29T07:47:16.439Z,99.90
2018-12-29T07:49:44.814Z,99.90
2018-12-29T07:52:13.457Z,99.90
2018-12-29T07:54:41.868Z,99.90
2018-12-29T07:57:10.224Z,99.90
2018-12-29T07:59:38.694Z,99.90
2018-12-29T08:02:07.175Z,98.50
2018-12-29T08:04:35.579Z,97.00
2018-12-29T08:07:03.968Z,96.70
2018-12-29T08:09:32.377Z,95.30
2018-12-29T08:12:00.866Z,94.60
2018-12-29T08:14:29.176Z,94.00
2018-12-29T08:16:57.930Z,93.50
2018-12-29T08:19:26.125Z,93.70
2018-12-29T08:21:54.948Z,93.00
2018-12-29T08:24:23.212Z,92.40
2018-12-29T08:26:51.696Z,92.70
2018-12-29T08:29:19.956Z,93.00
2018-12-29T08:31:48.460Z,93.10
2018-12-29T08:34:17.009Z,92.90
2018-12-29T08:36:45.593Z,92.00
2018-12-29T08:39:13.906Z,92.50
2018-12-29T08:41:42.348Z,91.80
2018-12-29T08:44:10.829Z,91.70
2018-12-29T08:46:39.345Z,91.80
2018-12-29T08:49:07.698Z,92.00
2018-12-29T08:51:36.087Z,91.20
2018-12-29T08:54:04.792Z,90.70
2018-12-29T08:56:33.246Z,90.70
2018-12-29T08:59:01.920Z,89.50
2018-12-29T09:01:30.444Z,90.20
2018-12-29T09:04:00.281Z,90.20
2018-12-29T09:06:29.099Z,89.10
2018-12-29T09:08:57.512Z,89.80
2018-12-29T09:11:25.997Z,89.00
2018-12-29T09:13:54.263Z,88.60
2018-12-29T09:16:22.814Z,87.60
2018-12-29T09:18:51.327Z,88.00
2018-12-29T09:21:19.878Z,87.00
2018-12-29T09:23:48.461Z,85.80
2018-12-29T09:26:17.147Z,85.50
2018-12-29T09:28:45.669Z,85.40
2018-12-29T09:31:13.938Z,85.60
2018-12-29T09:33:42.388Z,84.00
2018-12-29T09:36:10.902Z,84.00
2018-12-29T09:38:39.280Z,82.90
2018-12-29T09:41:07.823Z,83.10
2018-12-29T09:43:36.408Z,82.30
2018-12-29T09:46:04.823Z,81.80
2018-12-29T09:48:33.428Z,82.60
2018-12-29T09:51:01.988Z,82.00
2018-12-29T09:53:30.532Z,82.90
2018-12-29T09:55:59.285Z,82.50
2018-12-29T09:58:27.738Z,80.60
2018-12-29T10:00:56.280Z,80.30
2018-12-29T10:03:24.885Z,79.70
2018-12-29T10:05:53.264Z,79.60
2018-12-29T10:08:21.543Z,78.60
2018-12-29T10:10:49.896Z,79.40
2018-12-29T10:13:18.483Z,78.40
2018-12-29T10:15:46.752Z,79.20
2018-12-29T10:18:15.222Z,78.80
2018-12-29T10:20:43.631Z,79.70
2018-12-29T10:23:12.033Z,78.20
2018-12-29T10:25:40.459Z,79.50
2018-12-29T10:28:09.154Z,79.90
2018-12-29T10:30:37.673Z,79.60
2018-12-29T10:33:06.072Z,79.20
2018-12-29T10:35:34.410Z,78.40
2018-12-29T10:38:02.907Z,78.50
2018-12-29T10:40:31.426Z,79.50
2018-12-29T10:42:59.878Z,79.00
2018-12-29T10:45:28.313Z,78.80
2018-12-29T10:47:56.895Z,77.90
2018-12-29T10:50:25.220Z,78.10
2018-12-29T10:52:53.595Z,77.90
2018-12-29T10:55:21.927Z,76.40
2018-12-29T10:57:50.338Z,77.20
2018-12-29T11:00:18.818Z,78.30
2018-12-29T11:02:47.267Z,77.60
2018-12-29T11:05:15.700Z,77.00
2018-12-29T11:07:44.037Z,77.80
2018-12-29T11:10:12.707Z,76.60
2018-12-29T11:12:41.129Z,77.30
2018-12-29T11:15:09.505Z,76.50
2018-12-29T11:17:42.141Z,76.70
2018-12-29T11:20:08.267Z,76.90
2018-12-29T11:22:36.849Z,77.10
2018-12-29T11:25:05.297Z,76.60
2018-12-29T11:27:33.748Z,76.60
2018-12-29T11:30:02.127Z,76.70
2018-12-29T11:32:30.471Z,76.20
2018-12-29T11:34:58.788Z,76.20
2018-12-29T11:37:27.010Z,76.60
2018-12-29T11:39:55.599Z,76.40
2018-12-29T11:42:23.908Z,76.60
2018-12-29T11:44:52.283Z,76.40
2018-12-29T11:47:20.684Z,77.20
2018-12-29T11:49:48.954Z,77.40
2018-12-29T11:52:17.592Z,77.20
2018-12-29T11:54:46.214Z,77.10
2018-12-29T11:57:14.654Z,77.40
2018-12-29T11:59:42.968Z,76.70
2018-12-29T12:02:11.306Z,76.20
2018-12-29T12:04:39.788Z,77.10
2018-12-29T12:07:08.269Z,77.10
2018-12-29T12:09:36.748Z,77.90
2018-12-29T12:12:05.080Z,77.50
2018-12-29T12:14:33.323Z,77.70
2018-12-29T12:17:01.789Z,76.90
2018-12-29T12:19:30.473Z,77.30
2018-12-29T12:21:58.982Z,78.30
2018-12-29T12:24:27.630Z,78.20
2018-12-29T12:26:56.419Z,77.40
2018-12-29T12:29:24.899Z,76.70
2018-12-29T12:31:53.317Z,77.60
2018-12-29T12:34:21.655Z,76.60
2018-12-29T12:36:50.068Z,77.50
2018-12-29T12:39:18.449Z,78.00
2018-12-29T12:41:46.583Z,77.20
2018-12-29T12:44:15.002Z,77.40
2018-12-29T12:46:43.888Z,78.10
2018-12-29T12:49:12.572Z,78.70
2018-12-29T12:51:40.954Z,79.40
2018-12-29T12:54:09.797Z,78.90
2018-12-29T12:56:38.115Z,78.80
2018-12-29T12:59:06.972Z,78.40
2018-12-29T13:01:35.553Z,78.10
2018-12-29T13:04:03.866Z,79.50
2018-12-29T13:06:32.154Z,78.90
2018-12-29T13:09:00.599Z,78.90
2018-12-29T13:11:29.823Z,79.40
2018-12-29T13:13:58.678Z,79.60
2018-12-29T13:16:27.035Z,78.90
2018-12-29T13:18:55.460Z,78.80
2018-12-29T13:21:24.011Z,79.20
2018-12-29T13:23:52.713Z,80.00
2018-12-29T13:26:21.004Z,80.40
2018-12-29T13:28:49.759Z,80.50
2018-12-29T13:31:18.343Z,80.20
2018-12-29T13:33:46.755Z,80.80
2018-12-29T13:36:15.228Z,81.30
2018-12-29T13:38:43.611Z,81.00
2018-12-29T13:41:12.100Z,82.30
2018-12-29T13:43:40.642Z,81.90
2018-12-29T13:46:09.224Z,83.40
2018-12-29T13:48:38.051Z,83.40
2018-12-29T13:51:06.420Z,83.70
2018-12-29T13:53:34.871Z,83.70
2018-12-29T13:56:03.285Z,84.70
2018-12-29T13:58:31.831Z,85.40
2018-12-29T14:01:00.414Z,86.10
2018-12-29T14:03:28.997Z,87.80
2018-12-29T14:05:57.583Z,89.00
2018-12-29T14:08:26.167Z,88.90
2018-12-29T14:10:54.574Z,89.50
2018-12-29T14:13:22.951Z,89.60
2018-12-29T14:15:51.398Z,89.50
2018-12-29T14:18:19.712Z,90.80
2018-12-29T14:20:47.845Z,90.10
2018-12-29T14:23:16.432Z,90.90
2018-12-29T14:25:44.807Z,91.10
2018-12-29T14:28:13.325Z,90.90
2018-12-29T14:30:41.814Z,90.80
2018-12-29T14:33:10.557Z,91.40
2018-12-29T14:35:38.964Z,91.80
2018-12-29T14:38:07.327Z,92.30
2018-12-29T14:40:35.796Z,92.60
2018-12-29T14:43:04.205Z,93.30
2018-12-29T14:45:32.552Z,93.20
2018-12-29T14:48:01.056Z,94.10
2018-12-29T14:50:29.648Z,93.80
2018-12-29T14:52:58.023Z,94.70
2018-12-29T14:55:26.343Z,94.10
2018-12-29T15:10:10.318Z,94.60
2018-12-29T15:12:38.590Z,96.50
2018-12-29T15:15:07.334Z,97.20
2018-12-29T15:17:36.019Z,97.50
2018-12-29T15:20:04.733Z,97.70
2018-12-29T15:22:33.287Z,98.00
2018-12-29T15:25:01.973Z,98.20
2018-12-29T15:27:30.376Z,98.50
2018-12-29T15:29:58.768Z,98.60
2018-12-29T15:32:27.207Z,99.10
2018-12-29T15:34:56.042Z,98.90
2018-12-29T15:37:24.403Z,99.50
2018-12-29T15:39:52.771Z,99.50
2018-12-29T15:42:21.646Z,99.40
2018-12-29T15:44:50.167Z,99.70
2018-12-29T15:47:18.626Z,99.90
2018-12-29T15:49:47.222Z,99.90
2018-12-29T15:52:15.985Z,99.90
2018-12-29T15:54:44.924Z,99.90
2018-12-29T15:57:13.378Z,99.90
2018-12-29T15:59:41.939Z,99.90
2018-12-29T16:02:10.346Z,99.90
2018-12-29T16:04:38.886Z,99.90
2018-12-29T16:07:07.469Z,99.90
2018-12-29T16:09:36.155Z,99.90
2018-12-29T16:12:04.583Z,99.90
2018-12-29T16:14:35.697Z,99.90
2018-12-29T16:17:03.135Z,99.90
2018-12-29T16:19:31.614Z,99.90
2018-12-29T16:22:00.039Z,99.90
2018-12-29T16:24:28.582Z,99.90
2018-12-29T16:26:57.014Z,99.90
2018-12-29T16:29:26.702Z,99.90
2018-12-29T16:31:55.142Z,99.90
2018-12-29T16:34:23.451Z,99.90
2018-12-29T16:36:52.512Z,99.90
2018-12-29T16:39:20.890Z,99.90
2018-12-29T16:41:49.209Z,99.90
2018-12-29T16:44:17.644Z,99.90
2018-12-29T16:46:46.023Z,99.90
2018-12-29T16:49:14.810Z,99.90
2018-12-29T16:51:43.315Z,99.90
2018-12-29T16:54:11.788Z,99.90
2018-12-29T16:56:40.704Z,99.90
2018-12-29T16:59:09.088Z,99.90
2018-12-29T17:01:37.639Z,99.90
2018-12-29T17:04:05.764Z,99.90
2018-12-29T17:06:34.317Z,99.90
2018-12-29T17:09:03.512Z,99.90
2018-12-29T17:11:31.781Z,99.90
2018-12-29T17:14:00.172Z,99.90
2018-12-29T17:16:28.505Z,99.90
2018-12-29T17:18:56.883Z,99.90
2018-12-29T17:37:57.046Z,99.90
2018-12-29T17:40:25.390Z,99.90
2018-12-29T17:42:53.904Z,99.90
2018-12-29T17:45:22.384Z,99.90
2018-12-29T17:47:55.833Z,99.90
2018-12-29T17:50:24.720Z,99.90
2018-12-29T17:52:53.104Z,99.90
2018-12-29T17:55:21.633Z,99.90
2018-12-29T17:57:50.454Z,99.90
2018-12-29T18:00:19.275Z,99.90
2018-12-29T18:02:47.519Z,99.90
2018-12-29T18:05:15.965Z,99.90
2018-12-29T18:07:44.277Z,99.90
2018-12-29T18:10:12.648Z,99.90
2018-12-29T18:12:41.150Z,99.90
2018-12-29T18:15:09.624Z,99.90
2018-12-29T18:17:38.262Z,99.90
2018-12-29T18:22:41.781Z,99.90
2018-12-29T18:25:10.361Z,99.90
2018-12-29T18:27:38.878Z,99.90
2018-12-29T18:30:07.352Z,99.90
2018-12-29T18:32:36.298Z,99.90
2018-12-29T18:35:04.819Z,99.90
2018-12-29T18:37:33.980Z,99.90
2018-12-29T18:40:03.448Z,99.90
2018-12-29T18:42:31.795Z,99.90
2018-12-29T18:45:00.159Z,99.90
2018-12-29T18:47:28.516Z,99.90
2018-12-29T18:49:57.113Z,99.90
2018-12-29T18:52:25.733Z,99.90
2018-12-29T18:54:54.232Z,99.90
2018-12-29T18:57:22.755Z,99.90
2018-12-29T18:59:51.368Z,99.90
2018-12-29T19:02:19.872Z,99.90
2018-12-29T19:04:48.227Z,99.90
2018-12-29T19:07:16.908Z,99.90
2018-12-29T19:09:45.911Z,99.90
2018-12-29T19:12:14.458Z,99.90
2018-12-29T19:14:42.764Z,99.90
2018-12-29T19:17:11.109Z,99.90
2018-12-29T19:19:46.279Z,99.90
2018-12-29T19:22:09.968Z,99.90
2018-12-29T19:24:38.295Z,99.90
2018-12-29T19:27:06.772Z,99.90
2018-12-29T19:29:35.171Z,99.90
2018-12-29T19:32:04.072Z,99.90
2018-12-29T19:34:32.870Z,99.90
2018-12-29T19:37:01.432Z,99.90
2018-12-29T19:39:30.300Z,99.90
2018-12-29T19:41:58.718Z,99.90
2018-12-29T19:44:27.567Z,99.90
2018-12-29T19:46:56.821Z,99.90
2018-12-29T19:49:28.775Z,99.90
2018-12-29T19:51:58.103Z,99.90
2018-12-29T19:54:27.157Z,99.90
2018-12-29T19:56:55.780Z,99.90
2018-12-29T19:59:24.512Z,99.90
2018-12-29T20:01:53.103Z,99.90
2018-12-29T20:04:22.171Z,99.90
2018-12-29T20:06:50.795Z,99.90
2018-12-29T20:09:19.571Z,99.90
2018-12-29T20:11:47.849Z,99.90
2018-12-29T20:14:16.398Z,99.90
2018-12-29T20:16:45.281Z,99.90
2018-12-29T20:19:13.563Z,99.90
2018-12-29T20:21:42.152Z,99.90
2018-12-29T20:24:10.628Z,99.90
2018-12-29T20:26:39.376Z,99.90
2018-12-29T20:29:07.636Z,99.90
2018-12-29T20:31:36.171Z,99.90
2018-12-29T20:34:06.418Z,99.90
2018-12-29T20:36:36.227Z,99.90
2018-12-29T20:39:07.847Z,99.90
2018-12-29T20:41:38.473Z,99.90
2018-12-29T20:44:09.052Z,99.90
2018-12-29T20:46:39.450Z,99.90
2018-12-29T20:49:09.785Z,99.90
2018-12-29T20:51:40.097Z,99.90
2018-12-29T20:54:10.496Z,99.90
2018-12-29T20:56:41.031Z,99.90
2018-12-29T20:59:11.682Z,99.90
2018-12-29T21:01:41.800Z,99.90
2018-12-29T21:04:11.811Z,99.90
2018-12-29T21:06:41.603Z,99.90
2018-12-29T21:09:10.237Z,99.90
2018-12-29T21:11:38.795Z,99.90
2018-12-29T21:14:07.299Z,99.90
2018-12-29T21:16:35.794Z,99.90
2018-12-29T21:19:04.229Z,99.90
2018-12-29T21:21:32.803Z,99.90
2018-12-29T21:24:01.360Z,99.90
2018-12-29T21:26:29.809Z,99.90
2018-12-29T21:28:58.391Z,99.90
2018-12-29T21:31:26.784Z,99.90
2018-12-29T21:33:55.316Z,99.90
2018-12-29T21:36:23.730Z,99.90
2018-12-29T21:38:52.091Z,99.90
2018-12-29T21:41:20.381Z,99.90
2018-12-29T21:43:49.137Z,99.90
2018-12-29T21:46:17.536Z,99.90
2018-12-29T21:48:46.096Z,99.90
2018-12-29T21:51:14.650Z,99.90
2018-12-29T21:53:42.990Z,99.90
2018-12-29T21:56:11.369Z,99.90
2018-12-29T21:58:39.718Z,99.90
2018-12-29T22:01:08.295Z,99.90
2018-12-29T22:03:36.899Z,99.90
2018-12-29T22:06:05.380Z,99.90
2018-12-29T22:08:33.944Z,99.90
2018-12-29T22:11:02.732Z,99.90
2018-12-29T22:13:31.252Z,99.90
2018-12-29T22:15:59.511Z,99.90
2018-12-29T22:18:28.069Z,99.90
2018-12-29T22:20:56.789Z,99.90
2018-12-29T22:23:25.498Z,99.90
2018-12-29T22:25:54.227Z,99.90
2018-12-29T22:28:22.728Z,99.90
2018-12-29T22:30:51.392Z,99.90
2018-12-29T22:33:19.791Z,99.90
2018-12-29T22:35:49.376Z,99.90
2018-12-29T22:38:18.265Z,99.90
2018-12-29T22:40:46.797Z,99.90
2018-12-29T22:43:15.236Z,99.90
2018-12-29T22:45:43.491Z,99.90
2018-12-29T22:48:11.880Z,99.90
2018-12-29T22:50:41.178Z,99.90
2018-12-29T22:53:09.660Z,99.90
2018-12-29T22:55:37.982Z,99.90
2018-12-29T22:58:08.810Z,99.90
2018-12-29T23:00:39.861Z,99.90
2018-12-29T23:03:08.415Z,99.90
2018-12-29T23:05:36.978Z,99.90
2018-12-29T23:08:05.499Z,99.90
2018-12-29T23:10:34.073Z,99.90
2018-12-29T23:13:02.828Z,99.90
2018-12-29T23:15:31.251Z,99.90
2018-12-29T23:17:59.695Z,99.90
2018-12-29T23:20:28.015Z,99.90
2018-12-29T23:22:56.648Z,99.90
2018-12-29T23:25:25.272Z,99.90
2018-12-29T23:27:53.527Z,99.90
2018-12-29T23:30:21.987Z,99.90
2018-12-29T23:32:50.796Z,99.90
2018-12-29T23:35:19.125Z,99.90
2018-12-29T23:37:47.336Z,99.90
2018-12-29T23:40:15.908Z,99.90
2018-12-29T23:42:44.317Z,99.90
2018-12-29T23:45:12.600Z,99.90
2018-12-29T23:47:41.287Z,99.90
2018-12-29T23:50:09.663Z,99.90
2018-12-29T23:52:38.518Z,99.90
2018-12-29T23:55:06.913Z,99.90
2018-12-29T23:57:35.681Z,99.90
